Time;durP1;ratioP1;P1;durP2;ratioP2;P2;SDS_P1;SDS_P2;PMS_P1;PMS_P2;Temp;Humidity;BMP_temperature;BMP_pressure;BME280_temperature;BME280_humidity;BME280_pressure;Samples;Min_cycle;Max_cycle;Signal;HPM_P1;HPM_P2
2022/03/23 00:02:38;;;;;;;22.20;15.40;;;;;;;;;;5028334;28;20036;-64
2022/03/23 00:05:25;;;;;;;22.35;15.63;;;;;;;;;;5029679;28;20045;-60
2022/03/23 00:08:10;;;;;;;20.38;14.90;;;;;;;;;;5025592;28;20036;-63
2022/03/23 00:10:56;;;;;;;21.85;14.45;;;;;;;;;;5046264;28;20079;-62
2022/03/23 00:13:41;;;;;;;22.88;14.90;;;;;;;;;;5028082;28;20376;-62
2022/03/23 00:16:26;;;;;;;22.80;15.32;;;;;;;;;;5031805;28;20052;-61
2022/03/23 00:19:12;;;;;;;22.02;15.10;;;;;;;;;;5032509;28;20062;-62
2022/03/23 00:21:57;;;;;;;23.80;15.55;;;;;;;;;;5020730;28;20044;-63
2022/03/23 00:24:42;;;;;;;22.77;14.20;;;;;;;;;;5054891;28;20094;-64
2022/03/23 00:27:27;;;;;;;20.95;14.30;;;;;;;;;;5032076;28;20752;-61
2022/03/23 00:30:13;;;;;;;24.58;13.60;;;;;;;;;;5031898;28;20041;-62
2022/03/23 00:32:58;;;;;;;19.80;13.80;;;;;;;;;;5015777;28;20039;-62
2022/03/23 00:35:43;;;;;;;23.42;14.40;;;;;;;;;;5016768;28;20067;-62
2022/03/23 00:38:29;;;;;;;19.38;14.70;;;;;;;;;;5028361;28;20174;-61
2022/03/23 00:41:15;;;;;;;19.00;13.57;;;;;;;;;;5032389;28;20037;-64
2022/03/23 00:44:00;;;;;;;19.63;14.27;;;;;;;;;;5031421;28;20033;-61
2022/03/23 00:46:45;;;;;;;20.95;13.90;;;;;;;;;;5045439;28;20021;-64
2022/03/23 00:49:30;;;;;;;21.05;14.48;;;;;;;;;;5031919;28;20475;-61
2022/03/23 00:52:16;;;;;;;22.10;14.70;;;;;;;;;;5046284;28;20499;-63
2022/03/23 00:55:01;;;;;;;21.83;12.98;;;;;;;;;;5028109;28;20060;-63
2022/03/23 00:57:46;;;;;;;22.05;13.95;;;;;;;;;;5037192;28;20036;-63
2022/03/23 01:00:32;;;;;;;22.40;14.35;;;;;;;;;;5027846;28;20029;-60
2022/03/23 01:03:19;;;;;;;19.92;12.88;;;;;;;;;;5046099;28;20497;-61
2022/03/23 01:06:05;;;;;;;21.67;13.00;;;;;;;;;;5030926;28;20041;-61
2022/03/23 01:08:50;;;;;;;24.17;13.95;;;;;;;;;;5031411;28;20049;-61
2022/03/23 01:11:37;;;;;;;25.83;13.00;;;;;;;;;;5039511;28;20040;-61
2022/03/23 01:14:23;;;;;;;21.05;14.57;;;;;;;;;;5031137;28;20127;-59
2022/03/23 01:17:09;;;;;;;19.27;12.27;;;;;;;;;;5031952;28;20040;-60
2022/03/23 01:19:54;;;;;;;19.23;13.45;;;;;;;;;;5043734;28;20404;-68
2022/03/23 01:22:41;;;;;;;18.77;12.18;;;;;;;;;;5017330;28;20025;-61
2022/03/23 01:25:26;;;;;;;19.25;11.98;;;;;;;;;;5040381;28;20285;-60
2022/03/23 01:28:11;;;;;;;19.75;13.48;;;;;;;;;;5043637;28;20037;-61
2022/03/23 01:30:56;;;;;;;18.77;12.80;;;;;;;;;;5034550;28;20029;-61
2022/03/23 01:33:42;;;;;;;19.25;13.02;;;;;;;;;;5036529;28;20083;-60
2022/03/23 01:36:27;;;;;;;19.13;13.05;;;;;;;;;;5041258;28;20487;-69
2022/03/23 01:39:12;;;;;;;17.55;11.88;;;;;;;;;;5029807;28;20146;-62
2022/03/23 01:41:58;;;;;;;21.20;13.00;;;;;;;;;;5034537;28;20037;-70
2022/03/23 01:44:43;;;;;;;23.30;13.23;;;;;;;;;;5050202;28;20028;-67
2022/03/23 01:47:29;;;;;;;20.77;13.00;;;;;;;;;;5034169;28;20084;-69
2022/03/23 01:50:14;;;;;;;22.45;14.02;;;;;;;;;;5035980;28;20365;-67
2022/03/23 01:52:59;;;;;;;18.33;12.77;;;;;;;;;;5020842;28;20535;-69
2022/03/23 01:55:45;;;;;;;17.90;11.68;;;;;;;;;;5035806;28;20052;-61
2022/03/23 01:58:30;;;;;;;17.92;11.30;;;;;;;;;;5036116;28;20403;-62
2022/03/23 02:01:16;;;;;;;18.05;12.25;;;;;;;;;;5054224;28;20064;-62
2022/03/23 02:04:02;;;;;;;18.40;12.30;;;;;;;;;;5035060;28;20031;-63
2022/03/23 02:06:48;;;;;;;20.20;12.50;;;;;;;;;;5030715;28;20029;-64
2022/03/23 02:09:33;;;;;;;24.33;12.45;;;;;;;;;;5035834;28;20056;-65
2022/03/23 02:12:20;;;;;;;22.35;13.55;;;;;;;;;;5044893;28;20061;-63
2022/03/23 02:15:10;;;;;;;19.25;12.80;;;;;;;;;;5035614;28;20029;-66
2022/03/23 02:17:57;;;;;;;20.90;12.77;;;;;;;;;;5021393;28;20060;-60
2022/03/23 02:20:42;;;;;;;19.40;12.70;;;;;;;;;;5043896;28;20383;-61
2022/03/23 02:23:27;;;;;;;19.27;12.55;;;;;;;;;;5033705;28;20055;-61
2022/03/23 02:26:12;;;;;;;18.70;11.65;;;;;;;;;;5034941;28;20029;-60
2022/03/23 02:28:59;;;;;;;20.88;12.70;;;;;;;;;;5030581;28;20028;-62
2022/03/23 02:31:45;;;;;;;18.45;11.55;;;;;;;;;;5040233;28;20079;-69
2022/03/23 02:34:30;;;;;;;19.25;13.00;;;;;;;;;;5036354;28;20631;-62
2022/03/23 02:37:16;;;;;;;20.02;12.32;;;;;;;;;;5032177;28;20068;-64
2022/03/23 02:40:02;;;;;;;16.55;11.98;;;;;;;;;;5030319;28;20476;-63
2022/03/23 02:42:47;;;;;;;19.15;12.77;;;;;;;;;;5019349;28;20500;-63
2022/03/23 02:45:33;;;;;;;20.50;11.77;;;;;;;;;;5026458;28;20028;-63
2022/03/23 02:48:18;;;;;;;22.42;13.82;;;;;;;;;;5044659;28;20112;-62
2022/03/23 02:51:03;;;;;;;20.70;12.30;;;;;;;;;;5048549;28;20140;-58
2022/03/23 03:03:20;;;;;;;21.40;13.38;;;;;;;;;;5051583;28;20115;-64
2022/03/23 03:06:05;;;;;;;21.05;12.55;;;;;;;;;;5027512;28;20051;-64
2022/03/23 03:08:51;;;;;;;19.45;11.10;;;;;;;;;;5032444;28;20040;-61
2022/03/23 03:11:36;;;;;;;19.75;12.77;;;;;;;;;;5019440;28;20043;-64
2022/03/23 03:14:22;;;;;;;17.75;12.20;;;;;;;;;;5045518;28;20624;-63
2022/03/23 03:17:07;;;;;;;20.80;11.65;;;;;;;;;;5047807;28;20059;-61
2022/03/23 03:19:52;;;;;;;20.35;12.13;;;;;;;;;;5047586;28;20068;-62
2022/03/23 03:22:38;;;;;;;18.77;12.18;;;;;;;;;;5017914;28;20036;-61
2022/03/23 03:25:24;;;;;;;20.27;12.98;;;;;;;;;;5046209;28;20123;-65
2022/03/23 03:28:09;;;;;;;21.40;13.30;;;;;;;;;;5034620;28;20212;-63
2022/03/23 03:34:12;;;;;;;17.67;13.18;;;;;;;;;;5080506;22;20129;-65
2022/03/23 03:36:57;;;;;;;21.73;13.10;;;;;;;;;;5038733;28;20045;-64
2022/03/23 03:39:42;;;;;;;21.67;13.77;;;;;;;;;;5035314;28;20036;-63
2022/03/23 03:42:28;;;;;;;21.48;12.60;;;;;;;;;;5031305;28;20013;-62
2022/03/23 03:45:13;;;;;;;18.38;12.15;;;;;;;;;;5016637;28;20114;-62
2022/03/23 03:47:58;;;;;;;21.70;14.13;;;;;;;;;;5044910;28;20378;-67
2022/03/23 03:50:44;;;;;;;19.23;12.73;;;;;;;;;;5032528;28;20029;-69
2022/03/23 03:53:29;;;;;;;25.90;13.73;;;;;;;;;;5026454;28;20029;-70
2022/03/23 03:56:15;;;;;;;17.67;12.48;;;;;;;;;;5020776;28;20032;-69
2022/03/23 03:59:00;;;;;;;26.20;13.88;;;;;;;;;;5032935;28;20029;-69
2022/03/23 04:01:45;;;;;;;20.63;13.77;;;;;;;;;;5029851;28;20044;-72
2022/03/23 04:04:30;;;;;;;21.90;13.82;;;;;;;;;;5031423;28;20024;-60
2022/03/23 04:07:16;;;;;;;22.27;12.82;;;;;;;;;;5029561;28;20025;-63
2022/03/23 04:10:02;;;;;;;18.67;13.55;;;;;;;;;;5037856;28;20044;-59
2022/03/23 04:12:48;;;;;;;19.10;12.50;;;;;;;;;;5015348;28;20451;-61
2022/03/23 04:15:34;;;;;;;20.45;13.48;;;;;;;;;;5021979;28;20035;-61
2022/03/23 04:18:19;;;;;;;20.17;13.70;;;;;;;;;;5028589;28;20040;-61
2022/03/23 04:21:05;;;;;;;24.38;14.07;;;;;;;;;;5026506;28;20028;-63
2022/03/23 04:23:50;;;;;;;18.48;13.10;;;;;;;;;;5026963;28;20024;-61
2022/03/23 04:26:35;;;;;;;23.52;14.15;;;;;;;;;;5015404;28;20063;-70
2022/03/23 04:29:24;;;;;;;19.70;13.55;;;;;;;;;;5007633;28;20041;-68
2022/03/23 04:32:10;;;;;;;22.85;13.57;;;;;;;;;;5006037;28;20063;-68
2022/03/23 04:34:56;;;;;;;23.77;14.35;;;;;;;;;;5023807;28;20271;-67
2022/03/23 04:37:42;;;;;;;21.10;14.00;;;;;;;;;;5008778;28;20519;-68
2022/03/23 04:40:27;;;;;;;20.95;13.38;;;;;;;;;;5055234;28;20228;-69
2022/03/23 04:43:12;;;;;;;21.00;14.75;;;;;;;;;;5055158;28;20021;-63
2022/03/23 04:45:57;;;;;;;23.50;13.52;;;;;;;;;;5055031;28;20029;-59
2022/03/23 04:48:42;;;;;;;20.13;13.40;;;;;;;;;;5052839;28;20044;-60
2022/03/23 04:51:28;;;;;;;21.63;13.38;;;;;;;;;;5050689;28;20025;-58
2022/03/23 04:54:14;;;;;;;23.85;14.48;;;;;;;;;;5049973;28;20036;-59
2022/03/23 04:56:59;;;;;;;21.00;13.90;;;;;;;;;;5053288;28;20553;-62
2022/03/23 04:59:44;;;;;;;21.73;13.55;;;;;;;;;;5046930;28;20024;-62
2022/03/23 05:02:29;;;;;;;20.52;13.38;;;;;;;;;;5043811;28;20393;-64
2022/03/23 05:05:15;;;;;;;21.55;14.93;;;;;;;;;;5048919;28;20103;-65
2022/03/23 05:08:01;;;;;;;21.10;14.45;;;;;;;;;;5050144;28;20036;-63
2022/03/23 05:10:46;;;;;;;21.75;14.65;;;;;;;;;;5049392;28;20535;-63
2022/03/23 05:13:33;;;;;;;20.25;13.15;;;;;;;;;;5059222;28;20127;-66
2022/03/23 05:16:19;;;;;;;20.42;13.88;;;;;;;;;;5060128;28;20112;-63
2022/03/23 05:19:04;;;;;;;22.65;14.68;;;;;;;;;;5056098;28;20030;-62
2022/03/23 05:21:49;;;;;;;20.38;13.90;;;;;;;;;;5054902;28;20128;-63
2022/03/23 05:24:34;;;;;;;18.38;13.02;;;;;;;;;;5045133;28;20365;-66
2022/03/23 05:27:20;;;;;;;21.00;13.90;;;;;;;;;;5048406;28;20058;-65
2022/03/23 05:30:07;;;;;;;24.98;14.50;;;;;;;;;;5056444;28;20024;-63
2022/03/23 05:32:52;;;;;;;24.20;15.20;;;;;;;;;;5052658;28;20051;-65
2022/03/23 05:35:37;;;;;;;26.05;16.48;;;;;;;;;;5049274;28;20051;-63
2022/03/23 05:38:22;;;;;;;21.20;13.88;;;;;;;;;;5044937;28;20033;-66
2022/03/23 05:41:08;;;;;;;23.83;14.75;;;;;;;;;;5036661;28;20025;-69
2022/03/23 05:43:53;;;;;;;25.25;15.00;;;;;;;;;;5039551;28;20092;-67
2022/03/23 05:46:38;;;;;;;21.73;14.57;;;;;;;;;;5027885;28;20036;-68
2022/03/23 05:49:24;;;;;;;22.52;15.13;;;;;;;;;;5053909;28;20068;-70
2022/03/23 05:52:09;;;;;;;24.58;15.80;;;;;;;;;;5032540;28;20071;-71
2022/03/23 05:54:54;;;;;;;24.88;14.05;;;;;;;;;;5030070;28;20446;-70
2022/03/23 05:57:39;;;;;;;21.42;15.00;;;;;;;;;;5037176;28;20047;-61
2022/03/23 06:00:24;;;;;;;21.23;14.25;;;;;;;;;;5036585;28;20478;-62
2022/03/23 06:03:10;;;;;;;24.92;13.75;;;;;;;;;;5032657;28;20330;-61
2022/03/23 06:05:55;;;;;;;22.30;14.68;;;;;;;;;;5035159;28;20024;-61
2022/03/23 06:08:41;;;;;;;23.25;15.15;;;;;;;;;;5037828;28;20037;-62
2022/03/23 06:11:26;;;;;;;24.10;15.00;;;;;;;;;;5034405;28;20016;-58
2022/03/23 06:14:11;;;;;;;28.90;15.77;;;;;;;;;;5035240;28;20028;-61
2022/03/23 06:16:56;;;;;;;24.00;15.95;;;;;;;;;;5050840;28;20216;-65
2022/03/23 06:19:42;;;;;;;27.52;15.75;;;;;;;;;;5038175;28;20064;-63
2022/03/23 06:22:27;;;;;;;26.13;16.65;;;;;;;;;;5034350;28;20025;-62
2022/03/23 06:25:12;;;;;;;24.52;17.02;;;;;;;;;;5031173;28;20123;-63
2022/03/23 06:27:58;;;;;;;26.65;16.50;;;;;;;;;;5034283;28;20033;-62
2022/03/23 06:30:43;;;;;;;25.52;16.45;;;;;;;;;;5037314;28;20499;-61
2022/03/23 06:33:28;;;;;;;28.33;16.45;;;;;;;;;;5044732;28;20047;-63
2022/03/23 06:36:14;;;;;;;27.30;17.02;;;;;;;;;;5034741;28;20021;-70
2022/03/23 06:38:59;;;;;;;24.10;15.45;;;;;;;;;;5027384;28;20120;-70
2022/03/23 06:41:44;;;;;;;25.90;16.55;;;;;;;;;;5026784;28;20021;-71
2022/03/23 06:44:29;;;;;;;25.02;16.65;;;;;;;;;;5024694;28;20044;-69
2022/03/23 06:47:15;;;;;;;31.45;17.00;;;;;;;;;;5029793;28;20013;-67
2022/03/23 06:50:00;;;;;;;31.00;18.42;;;;;;;;;;5046330;28;20777;-67
2022/03/23 06:52:45;;;;;;;31.25;17.83;;;;;;;;;;5019485;28;20116;-65
2022/03/23 06:55:30;;;;;;;35.35;17.27;;;;;;;;;;5029170;28;20036;-68
2022/03/23 06:58:16;;;;;;;29.98;18.67;;;;;;;;;;5021851;28;20018;-64
2022/03/23 07:01:01;;;;;;;30.58;17.80;;;;;;;;;;5026305;28;20660;-65
2022/03/23 07:03:48;;;;;;;32.92;18.02;;;;;;;;;;5023816;28;20029;-67
2022/03/23 07:06:34;;;;;;;26.25;16.85;;;;;;;;;;5029902;28;20033;-66
2022/03/23 07:09:31;;;;;;;25.38;17.70;;;;;;;;;;5026290;28;20041;-66
2022/03/23 07:12:20;;;;;;;30.27;17.00;;;;;;;;;;5025344;28;20032;-72
2022/03/23 07:15:05;;;;;;;33.43;18.83;;;;;;;;;;5026884;28;20718;-70
2022/03/23 07:17:51;;;;;;;29.30;17.85;;;;;;;;;;5028393;28;20044;-71
2022/03/23 07:20:36;;;;;;;25.00;17.38;;;;;;;;;;5034046;28;20041;-71
2022/03/23 07:23:21;;;;;;;27.70;18.85;;;;;;;;;;5025312;28;20484;-71
2022/03/23 07:26:06;;;;;;;25.00;16.92;;;;;;;;;;5015314;28;20037;-67
2022/03/23 07:28:52;;;;;;;28.25;18.08;;;;;;;;;;5025434;28;20037;-63
2022/03/23 07:31:37;;;;;;;25.10;17.98;;;;;;;;;;5026213;28;20614;-60
2022/03/23 07:34:22;;;;;;;26.95;19.20;;;;;;;;;;5023038;28;20148;-59
2022/03/23 07:37:07;;;;;;;25.80;16.48;;;;;;;;;;5024965;28;20082;-60
2022/03/23 07:39:53;;;;;;;25.60;18.13;;;;;;;;;;5026600;28;20029;-61
2022/03/23 07:42:38;;;;;;;24.40;19.02;;;;;;;;;;5026235;28;20031;-59
2022/03/23 07:45:24;;;;;;;27.10;17.80;;;;;;;;;;5024459;28;20556;-69
2022/03/23 07:48:09;;;;;;;23.10;17.45;;;;;;;;;;5030415;28;20037;-69
2022/03/23 07:50:54;;;;;;;25.20;16.70;;;;;;;;;;5021507;28;20056;-70
2022/03/23 07:53:39;;;;;;;26.45;18.20;;;;;;;;;;5048010;28;20022;-67
2022/03/23 07:56:25;;;;;;;27.67;17.80;;;;;;;;;;5023813;28;20384;-68
2022/03/23 07:59:10;;;;;;;30.05;17.17;;;;;;;;;;5019785;28;20032;-66
2022/03/23 08:01:55;;;;;;;27.15;18.75;;;;;;;;;;5024062;28;20040;-64
2022/03/23 08:04:41;;;;;;;28.80;17.85;;;;;;;;;;5028547;28;20029;-60
2022/03/23 08:07:26;;;;;;;28.65;19.10;;;;;;;;;;5025490;28;20109;-67
2022/03/23 08:10:12;;;;;;;28.23;19.42;;;;;;;;;;5027103;28;20029;-66
2022/03/23 08:12:57;;;;;;;24.92;17.85;;;;;;;;;;5029834;28;20171;-64
2022/03/23 08:15:42;;;;;;;27.13;19.98;;;;;;;;;;5025920;28;20121;-67
2022/03/23 08:18:27;;;;;;;30.73;20.33;;;;;;;;;;5026856;28;20079;-68
2022/03/23 08:21:13;;;;;;;26.85;19.50;;;;;;;;;;5025105;28;20461;-69
2022/03/23 08:23:58;;;;;;;28.65;18.50;;;;;;;;;;5030690;28;20255;-68
2022/03/23 08:26:43;;;;;;;26.45;19.15;;;;;;;;;;5029535;28;20033;-70
2022/03/23 08:29:28;;;;;;;28.85;20.02;;;;;;;;;;5025435;28;20037;-69
2022/03/23 08:32:14;;;;;;;28.55;20.55;;;;;;;;;;5024182;28;20025;-63
2022/03/23 08:34:59;;;;;;;28.05;19.10;;;;;;;;;;5023069;28;20025;-67
2022/03/23 08:37:44;;;;;;;24.85;18.15;;;;;;;;;;5025662;28;20072;-67
2022/03/23 08:40:30;;;;;;;26.92;18.92;;;;;;;;;;5011880;28;20496;-67
2022/03/23 08:43:15;;;;;;;29.35;19.77;;;;;;;;;;5011206;28;20033;-63
2022/03/23 08:46:00;;;;;;;23.48;18.83;;;;;;;;;;5008440;28;20458;-63
2022/03/23 08:48:45;;;;;;;23.98;19.75;;;;;;;;;;5011262;28;20063;-64
2022/03/23 08:51:31;;;;;;;25.25;19.70;;;;;;;;;;5011650;28;20107;-62
2022/03/23 08:54:16;;;;;;;25.77;18.73;;;;;;;;;;5010194;28;20472;-61
2022/03/23 08:57:01;;;;;;;27.13;18.80;;;;;;;;;;5018672;28;20050;-64
2022/03/23 08:59:47;;;;;;;27.27;17.63;;;;;;;;;;4997388;28;20465;-62
2022/03/23 09:02:32;;;;;;;28.08;16.92;;;;;;;;;;5011313;28;20061;-63
2022/03/23 09:05:19;;;;;;;23.15;18.52;;;;;;;;;;5009054;28;20482;-61
2022/03/23 09:08:04;;;;;;;30.98;20.90;;;;;;;;;;5003229;28;20520;-62
2022/03/23 09:10:49;;;;;;;26.60;19.75;;;;;;;;;;5024678;28;20041;-61
2022/03/23 09:13:35;;;;;;;28.63;20.42;;;;;;;;;;5010760;28;20446;-61
2022/03/23 09:16:20;;;;;;;28.83;20.25;;;;;;;;;;5008854;28;20574;-60
2022/03/23 09:19:05;;;;;;;32.17;20.30;;;;;;;;;;5009154;28;20065;-68
2022/03/23 09:21:51;;;;;;;28.45;19.67;;;;;;;;;;5011410;28;20021;-63
2022/03/23 09:24:36;;;;;;;26.88;20.00;;;;;;;;;;5010887;28;20041;-61
2022/03/23 09:27:21;;;;;;;28.95;20.25;;;;;;;;;;5018154;28;20009;-62
2022/03/23 09:30:07;;;;;;;25.08;18.95;;;;;;;;;;5014979;28;20029;-65
2022/03/23 09:32:52;;;;;;;30.67;19.92;;;;;;;;;;5011364;28;20097;-61
2022/03/23 09:35:38;;;;;;;27.33;20.67;;;;;;;;;;5009907;28;20480;-63
2022/03/23 09:38:23;;;;;;;27.00;20.05;;;;;;;;;;5014425;28;20037;-64
2022/03/23 09:41:08;;;;;;;30.75;18.58;;;;;;;;;;5020262;28;20033;-62
2022/03/23 09:43:54;;;;;;;23.95;18.15;;;;;;;;;;5025531;28;20044;-61
2022/03/23 09:46:41;;;;;;;26.55;18.98;;;;;;;;;;5022504;28;20086;-60
2022/03/23 09:49:26;;;;;;;25.02;17.83;;;;;;;;;;5027937;28;20037;-61
2022/03/23 09:52:11;;;;;;;22.90;18.08;;;;;;;;;;5029740;28;20040;-62
2022/03/23 09:54:56;;;;;;;26.80;17.58;;;;;;;;;;5032977;28;20154;-62
2022/03/23 09:57:42;;;;;;;21.05;16.70;;;;;;;;;;5015231;28;20060;-67
2022/03/23 10:00:32;;;;;;;23.95;16.88;;;;;;;;;;5033475;28;20025;-65
2022/03/23 10:03:36;;;;;;;23.20;17.23;;;;;;;;;;5029263;28;20456;-64
2022/03/23 10:06:40;;;;;;;24.17;17.52;;;;;;;;;;5028627;28;20415;-63
2022/03/23 10:09:25;;;;;;;23.00;16.08;;;;;;;;;;5026867;28;20048;-62
2022/03/23 10:12:30;;;;;;;25.25;15.32;;;;;;;;;;5028396;28;20342;-60
2022/03/23 10:15:38;;;;;;;21.35;13.82;;;;;;;;;;5042491;28;20033;-63
2022/03/23 10:18:32;;;;;;;14.93;12.52;;;;;;;;;;5000196;28;20499;-60
2022/03/23 10:21:18;;;;;;;12.30;10.52;;;;;;;;;;5024916;28;20138;-63
2022/03/23 10:24:03;;;;;;;14.70;11.68;;;;;;;;;;5037146;28;20033;-61
2022/03/23 10:26:49;;;;;;;13.70;11.52;;;;;;;;;;5025654;28;20044;-61
2022/03/23 10:29:39;;;;;;;14.13;12.50;;;;;;;;;;5037895;28;20037;-61
2022/03/23 10:32:32;;;;;;;14.82;11.82;;;;;;;;;;5033875;28;20057;-60
2022/03/23 10:35:18;;;;;;;17.95;12.18;;;;;;;;;;5043089;28;20037;-61
2022/03/23 10:38:11;;;;;;;15.88;11.88;;;;;;;;;;5024788;28;20697;-61
2022/03/23 10:40:56;;;;;;;17.67;11.07;;;;;;;;;;5027895;28;20100;-65
2022/03/23 10:43:41;;;;;;;15.02;11.18;;;;;;;;;;5006828;28;20029;-65
2022/03/23 10:46:27;;;;;;;13.70;10.90;;;;;;;;;;5013762;28;20053;-65
2022/03/23 10:49:13;;;;;;;20.25;11.70;;;;;;;;;;5027421;28;20037;-65
2022/03/23 10:52:13;;;;;;;19.63;11.98;;;;;;;;;;5026613;28;20029;-65
2022/03/23 10:54:59;;;;;;;14.77;11.43;;;;;;;;;;5014828;28;20076;-62
2022/03/23 10:57:44;;;;;;;13.60;11.05;;;;;;;;;;4999083;28;20025;-64
2022/03/23 11:00:30;;;;;;;16.30;11.57;;;;;;;;;;5014397;28;20025;-65
2022/03/23 11:03:16;;;;;;;13.52;10.30;;;;;;;;;;5015700;28;20033;-64
2022/03/23 11:06:01;;;;;;;11.27;8.93;;;;;;;;;;5015264;28;20014;-63
2022/03/23 11:08:46;;;;;;;11.55;9.05;;;;;;;;;;5012752;28;20033;-63
2022/03/23 11:17:40;;;;;;;11.80;8.85;;;;;;;;;;5011991;28;20029;-67
2022/03/23 11:20:34;;;;;;;13.95;8.73;;;;;;;;;;4999289;28;20196;-64
2022/03/23 11:23:19;;;;;;;10.43;7.50;;;;;;;;;;5012692;28;20499;-64
2022/03/23 11:26:04;;;;;;;13.98;7.97;;;;;;;;;;5017485;28;20033;-65
2022/03/23 11:28:52;;;;;;;14.25;8.55;;;;;;;;;;5007105;28;20033;-57
2022/03/23 11:31:38;;;;;;;13.10;8.88;;;;;;;;;;5009818;28;20033;-59
2022/03/23 11:34:24;;;;;;;15.38;9.07;;;;;;;;;;5011802;28;20040;-57
2022/03/23 11:37:09;;;;;;;13.43;8.85;;;;;;;;;;5010417;28;20048;-59
2022/03/23 11:39:56;;;;;;;12.52;7.38;;;;;;;;;;5012553;28;20407;-60
2022/03/23 11:42:41;;;;;;;16.85;7.97;;;;;;;;;;5016207;28;20033;-61
2022/03/23 11:45:27;;;;;;;9.95;7.85;;;;;;;;;;5011384;28;20025;-65
2022/03/23 11:48:18;;;;;;;12.70;7.95;;;;;;;;;;5009144;28;20481;-73
2022/03/23 11:51:09;;;;;;;10.68;6.55;;;;;;;;;;5006849;28;20025;-63
2022/03/23 11:54:05;;;;;;;11.35;7.28;;;;;;;;;;5013379;28;20044;-66
2022/03/23 11:56:56;;;;;;;16.60;8.85;;;;;;;;;;5026964;28;20030;-69
2022/03/23 11:59:42;;;;;;;12.05;8.85;;;;;;;;;;5024489;28;20033;-60
2022/03/23 12:02:39;;;;;;;17.40;10.13;;;;;;;;;;5012287;28;20049;-60
2022/03/23 12:05:25;;;;;;;9.45;7.53;;;;;;;;;;5022589;28;20057;-65
2022/03/23 12:08:10;;;;;;;11.00;8.48;;;;;;;;;;5019505;28;20037;-64
2022/03/23 12:10:56;;;;;;;16.65;7.75;;;;;;;;;;5009367;28;20029;-66
2022/03/23 12:13:57;;;;;;;12.10;8.25;;;;;;;;;;5012470;28;20040;-67
2022/03/23 12:16:51;;;;;;;13.23;8.20;;;;;;;;;;5011057;28;20033;-64
2022/03/23 12:19:53;;;;;;;11.95;7.85;;;;;;;;;;5010624;28;20511;-64
2022/03/23 12:23:09;;;;;;;10.57;7.63;;;;;;;;;;5012820;28;20032;-75
2022/03/23 12:25:55;;;;;;;10.15;6.75;;;;;;;;;;5004669;28;20121;-69
2022/03/23 12:28:45;;;;;;;13.23;7.88;;;;;;;;;;5011696;28;20480;-66
2022/03/23 12:31:34;;;;;;;11.38;7.40;;;;;;;;;;5019085;28;20439;-68
2022/03/23 12:34:23;;;;;;;10.85;6.72;;;;;;;;;;4997943;28;20025;-67
2022/03/23 12:37:09;;;;;;;10.30;6.70;;;;;;;;;;5009095;28;20083;-63
2022/03/23 12:40:05;;;;;;;11.68;6.55;;;;;;;;;;4996249;28;20018;-60
2022/03/23 12:42:52;;;;;;;13.35;8.45;;;;;;;;;;4987225;28;20060;-60
2022/03/23 12:45:39;;;;;;;15.15;8.77;;;;;;;;;;4994512;28;20041;-58
2022/03/23 12:57:49;;;;;;;13.30;8.97;;;;;;;;;;4983767;28;20073;-66
2022/03/23 13:00:40;;;;;;;11.75;8.85;;;;;;;;;;4992634;28;20032;-59
2022/03/23 13:03:26;;;;;;;13.95;9.45;;;;;;;;;;4987328;28;20025;-61
2022/03/23 13:06:12;;;;;;;16.05;9.10;;;;;;;;;;4998014;28;20033;-56
2022/03/23 13:08:57;;;;;;;15.30;9.23;;;;;;;;;;4990460;28;20212;-67
2022/03/23 13:11:55;;;;;;;13.27;9.93;;;;;;;;;;4996415;28;20034;-63
2022/03/23 13:14:41;;;;;;;13.90;9.32;;;;;;;;;;5005895;28;20112;-67
2022/03/23 13:17:26;;;;;;;10.85;8.57;;;;;;;;;;5004859;28;20416;-58
2022/03/23 13:20:20;;;;;;;17.92;10.35;;;;;;;;;;4993861;28;20029;-55
2022/03/23 13:23:13;;;;;;;17.15;10.35;;;;;;;;;;4990336;28;20576;-55
2022/03/23 13:26:04;;;;;;;13.63;10.55;;;;;;;;;;4992850;28;20201;-52
2022/03/23 13:28:50;;;;;;;17.25;10.35;;;;;;;;;;5008834;28;20042;-56
2022/03/23 13:31:38;;;;;;;12.95;9.77;;;;;;;;;;4992498;28;20030;-57
2022/03/23 13:34:23;;;;;;;15.10;9.85;;;;;;;;;;4990808;28;20046;-57
2022/03/23 13:37:09;;;;;;;15.00;9.73;;;;;;;;;;5000767;28;20465;-64
2022/03/23 13:39:55;;;;;;;12.95;9.85;;;;;;;;;;5038113;28;20045;-61
2022/03/23 13:45:48;;;;;;;13.98;9.90;;;;;;;;;;5043073;28;20033;-61
2022/03/23 13:48:36;;;;;;;15.40;9.23;;;;;;;;;;5019771;28;20719;-63
2022/03/23 13:51:21;;;;;;;18.92;9.40;;;;;;;;;;5025492;28;20167;-61
2022/03/23 13:54:08;;;;;;;12.10;9.13;;;;;;;;;;5022148;28;20468;-65
2022/03/23 13:56:53;;;;;;;12.57;8.43;;;;;;;;;;5026344;28;20257;-68
2022/03/23 13:59:38;;;;;;;12.63;9.93;;;;;;;;;;5010121;28;20497;-67
2022/03/23 14:02:24;;;;;;;14.77;9.45;;;;;;;;;;5024839;28;20550;-67
2022/03/23 14:05:09;;;;;;;17.42;10.95;;;;;;;;;;5023761;28;20021;-70
2022/03/23 14:07:58;;;;;;;22.70;10.32;;;;;;;;;;5025842;28;20507;-67
2022/03/23 14:10:45;;;;;;;13.00;9.68;;;;;;;;;;5022896;28;20571;-65
2022/03/23 14:13:30;;;;;;;17.15;10.60;;;;;;;;;;5024416;28;20209;-70
2022/03/23 14:16:18;;;;;;;20.55;11.05;;;;;;;;;;5030626;28;20348;-64
2022/03/23 14:19:03;;;;;;;16.02;10.25;;;;;;;;;;5024843;28;20025;-64
2022/03/23 14:21:49;;;;;;;12.43;9.52;;;;;;;;;;5023864;28;20021;-62
2022/03/23 14:24:35;;;;;;;15.27;9.88;;;;;;;;;;5025342;28;20032;-63
2022/03/23 14:27:32;;;;;;;16.38;9.63;;;;;;;;;;5023402;28;20040;-64
2022/03/23 14:30:18;;;;;;;13.40;9.75;;;;;;;;;;5033395;28;20716;-53
2022/03/23 14:33:03;;;;;;;15.13;9.88;;;;;;;;;;5026642;28;20037;-61
2022/03/23 14:35:50;;;;;;;14.10;9.60;;;;;;;;;;5027359;28;20083;-62
2022/03/23 14:38:37;;;;;;;14.05;9.65;;;;;;;;;;5032821;28;20037;-65
2022/03/23 14:41:22;;;;;;;15.23;9.93;;;;;;;;;;5025946;28;20041;-61
2022/03/23 14:44:09;;;;;;;17.17;10.13;;;;;;;;;;5025742;28;20021;-61
2022/03/23 14:46:54;;;;;;;15.85;10.27;;;;;;;;;;5027165;28;20037;-61
2022/03/23 14:49:41;;;;;;;12.73;9.55;;;;;;;;;;5034075;28;20544;-63
2022/03/23 14:52:26;;;;;;;15.68;10.82;;;;;;;;;;5024834;28;20392;-57
2022/03/23 14:55:12;;;;;;;16.42;10.85;;;;;;;;;;5028176;28;20034;-58
2022/03/23 14:57:57;;;;;;;14.13;9.88;;;;;;;;;;5026086;28;20064;-59
2022/03/23 15:00:42;;;;;;;15.80;11.82;;;;;;;;;;5028663;28;20041;-59
2022/03/23 15:03:28;;;;;;;14.00;9.90;;;;;;;;;;5026881;28;20503;-57
2022/03/23 15:15:26;;;;;;;16.52;10.05;;;;;;;;;;5027333;28;20088;-53
2022/03/23 15:18:12;;;;;;;15.27;10.68;;;;;;;;;;5039796;28;20064;-50
2022/03/23 15:20:57;;;;;;;14.88;10.68;;;;;;;;;;5035694;28;20025;-53
2022/03/23 15:23:43;;;;;;;13.75;9.57;;;;;;;;;;5023818;28;20022;-55
2022/03/23 15:26:28;;;;;;;15.30;10.48;;;;;;;;;;5027202;28;20554;-67
2022/03/23 15:29:13;;;;;;;13.02;9.55;;;;;;;;;;5025402;28;20052;-61
2022/03/23 15:31:59;;;;;;;14.27;10.50;;;;;;;;;;5028339;28;20043;-62
2022/03/23 15:34:44;;;;;;;14.40;9.75;;;;;;;;;;5025387;28;20049;-62
2022/03/23 15:37:30;;;;;;;14.75;10.43;;;;;;;;;;5027921;28;20056;-64
2022/03/23 15:40:15;;;;;;;13.30;10.20;;;;;;;;;;5010590;28;20076;-62
2022/03/23 15:43:03;;;;;;;14.00;10.02;;;;;;;;;;5009147;28;20032;-60
2022/03/23 15:45:49;;;;;;;13.30;9.52;;;;;;;;;;5013024;28;20164;-64
2022/03/23 15:48:35;;;;;;;16.35;9.88;;;;;;;;;;5016177;28;20045;-54
2022/03/23 15:51:20;;;;;;;14.52;10.75;;;;;;;;;;5015413;28;20052;-57
2022/03/23 15:54:05;;;;;;;16.88;11.38;;;;;;;;;;5016867;28;20036;-55
2022/03/23 15:56:51;;;;;;;13.98;10.40;;;;;;;;;;5012725;28;20026;-52
2022/03/23 15:59:36;;;;;;;13.10;9.85;;;;;;;;;;5008077;28;20072;-55
2022/03/23 16:02:21;;;;;;;14.77;9.65;;;;;;;;;;5008497;28;20056;-70
2022/03/23 16:05:06;;;;;;;18.88;10.57;;;;;;;;;;5010591;28;20031;-56
2022/03/23 16:07:52;;;;;;;15.00;9.60;;;;;;;;;;5005483;28;20546;-56
2022/03/23 16:10:37;;;;;;;15.88;9.48;;;;;;;;;;5012184;28;20429;-58
2022/03/23 16:13:22;;;;;;;14.10;9.55;;;;;;;;;;5011610;28;20030;-60
2022/03/23 16:16:07;;;;;;;17.08;9.15;;;;;;;;;;5009791;28;20098;-53
2022/03/23 16:18:55;;;;;;;17.77;9.07;;;;;;;;;;5027357;28;20026;-57
2022/03/23 16:21:40;;;;;;;16.30;10.48;;;;;;;;;;5022292;28;20056;-57
2022/03/23 16:24:26;;;;;;;13.85;10.15;;;;;;;;;;5019436;28;20026;-60
2022/03/23 16:27:13;;;;;;;15.63;9.23;;;;;;;;;;5020255;28;20624;-60
2022/03/23 16:29:59;;;;;;;16.45;10.45;;;;;;;;;;5009412;28;20123;-60
2022/03/23 16:32:45;;;;;;;17.33;9.40;;;;;;;;;;5009075;28;20033;-60
2022/03/23 16:35:30;;;;;;;14.25;9.93;;;;;;;;;;5019442;28;20443;-62
2022/03/23 16:38:18;;;;;;;13.23;9.35;;;;;;;;;;5043060;28;20025;-60
2022/03/23 16:44:12;;;;;;;15.25;8.82;;;;;;;;;;5028369;28;20025;-55
2022/03/23 16:46:57;;;;;;;16.65;10.30;;;;;;;;;;5033030;28;20401;-53
2022/03/23 16:49:42;;;;;;;14.70;10.40;;;;;;;;;;5039252;28;20128;-54
2022/03/23 16:52:27;;;;;;;13.88;10.45;;;;;;;;;;5037623;28;20119;-49
2022/03/23 16:55:13;;;;;;;14.68;9.65;;;;;;;;;;5028245;28;20025;-55
2022/03/23 16:58:01;;;;;;;16.88;10.80;;;;;;;;;;5039824;28;20087;-67